createdAt,value
2022-11-02T00:00:12.465Z,1.10
2022-11-02T00:01:18.433Z,1.17
2022-11-02T00:02:20.293Z,1.20
2022-11-02T00:03:22.199Z,1.45
2022-11-02T00:04:23.908Z,0.95
2022-11-02T00:05:25.610Z,1.10
2022-11-02T00:06:27.403Z,0.82
2022-11-02T00:07:29.184Z,1.00
2022-11-02T00:08:30.877Z,1.00
2022-11-02T00:09:32.719Z,1.15
2022-11-02T00:10:34.485Z,0.88
2022-11-02T00:11:37.596Z,1.10
2022-11-02T00:12:39.447Z,1.08
2022-11-02T00:13:41.179Z,0.98
2022-11-02T00:14:42.871Z,0.90
2022-11-02T00:15:44.627Z,0.95
2022-11-02T00:16:46.842Z,1.10
2022-11-02T00:17:53.687Z,0.98
2022-11-02T00:18:59.207Z,1.10
2022-11-02T00:20:00.989Z,1.25
2022-11-02T00:21:03.626Z,1.10
2022-11-02T00:22:05.494Z,1.10
2022-11-02T00:23:10.820Z,1.00
2022-11-02T00:24:13.326Z,1.02
2022-11-02T00:25:18.618Z,0.98
2022-11-02T00:26:20.753Z,1.20
2022-11-02T00:27:24.122Z,1.05
2022-11-02T00:28:28.261Z,1.10
2022-11-02T00:29:33.857Z,1.27
2022-11-02T00:30:35.997Z,1.40
2022-11-02T00:31:37.754Z,1.30
2022-11-02T00:32:39.601Z,1.10
2022-11-02T00:33:41.382Z,1.15
2022-11-02T00:34:43.556Z,1.20
2022-11-02T00:35:46.338Z,1.40
2022-11-02T00:36:53.042Z,1.10
2022-11-02T00:37:57.046Z,1.08
2022-11-02T00:38:59.066Z,1.10
2022-11-02T00:40:01.047Z,1.00
2022-11-02T00:41:02.791Z,1.05
2022-11-02T00:42:04.844Z,1.27
2022-11-02T00:43:07.398Z,1.10
2022-11-02T00:44:09.181Z,1.10
2022-11-02T00:45:11.110Z,1.13
2022-11-02T00:46:12.848Z,0.93
2022-11-02T00:47:14.615Z,0.95
2022-11-02T00:48:16.414Z,1.00
2022-11-02T00:49:18.191Z,1.23
2022-11-02T00:50:19.934Z,1.10
2022-11-02T00:51:21.690Z,1.00
2022-11-02T00:52:23.386Z,1.00
2022-11-02T00:53:27.123Z,1.10
2022-11-02T00:54:29.557Z,0.90
2022-11-02T00:55:31.425Z,1.38
2022-11-02T00:56:39.222Z,1.23
2022-11-02T00:57:41.906Z,1.33
2022-11-02T00:58:44.670Z,1.13
2022-11-02T00:59:47.211Z,1.30
2022-11-02T01:00:50.702Z,1.00
2022-11-02T01:01:52.663Z,1.20
2022-11-02T01:02:54.627Z,0.95
2022-11-02T01:03:57.177Z,1.20
2022-11-02T01:04:59.021Z,1.17
2022-11-02T01:06:14.288Z,1.25
2022-11-02T01:07:16.023Z,1.02
2022-11-02T01:08:17.801Z,1.30
2022-11-02T01:09:19.708Z,1.10
2022-11-02T01:10:21.527Z,1.17
2022-11-02T01:11:24.557Z,1.13
2022-11-02T01:12:26.827Z,1.05
2022-11-02T01:13:28.590Z,1.00
2022-11-02T01:14:30.712Z,1.20
2022-11-02T01:15:32.784Z,1.20
2022-11-02T01:16:34.618Z,1.05
2022-11-02T01:17:36.972Z,1.20
2022-11-02T01:18:42.656Z,0.80
2022-11-02T01:19:44.631Z,1.33
2022-11-02T01:20:46.333Z,1.00
2022-11-02T01:21:48.443Z,1.02
2022-11-02T01:22:50.400Z,1.00
2022-11-02T01:23:55.686Z,1.30
2022-11-02T01:24:57.498Z,1.20
2022-11-02T01:26:06.168Z,1.50
2022-11-02T01:27:07.886Z,1.02
2022-11-02T01:28:09.585Z,1.00
2022-11-02T01:29:11.308Z,1.00
2022-11-02T01:30:13.549Z,1.05
2022-11-02T01:31:15.454Z,1.10
2022-11-02T01:32:17.187Z,1.35
2022-11-02T01:33:18.969Z,1.15
2022-11-02T01:34:21.764Z,1.25
2022-11-02T01:35:23.532Z,1.33
2022-11-02T01:36:25.326Z,1.20
2022-11-02T01:37:27.040Z,1.33
2022-11-02T01:38:28.797Z,1.10
2022-11-02T01:39:30.627Z,1.35
2022-11-02T01:40:37.710Z,1.08
2022-11-02T01:41:39.725Z,1.55
2022-11-02T01:42:41.579Z,1.27
2022-11-02T01:43:45.952Z,1.45
2022-11-02T01:44:48.174Z,1.70
2022-11-02T01:46:14.102Z,1.90
2022-11-02T01:47:27.023Z,1.40
2022-11-02T01:48:34.860Z,1.50
2022-11-02T01:49:39.429Z,1.48
2022-11-02T01:50:41.885Z,1.50
2022-11-02T01:51:59.624Z,1.08
2022-11-02T01:53:01.805Z,1.38
2022-11-02T01:54:10.359Z,1.67
2022-11-02T01:55:31.198Z,1.58
2022-11-02T01:56:34.152Z,1.27
2022-11-02T01:57:39.886Z,1.50
2022-11-02T01:58:46.023Z,1.30
2022-11-02T01:59:50.497Z,1.40
2022-11-02T02:00:52.767Z,1.40
2022-11-02T02:01:55.709Z,1.30
2022-11-02T02:03:16.763Z,1.10
2022-11-02T02:04:21.243Z,1.13
2022-11-02T02:05:24.400Z,1.20
2022-11-02T02:06:26.369Z,0.90
2022-11-02T02:07:30.795Z,1.15
2022-11-02T02:08:32.993Z,0.90
2022-11-02T02:09:35.179Z,1.30
2022-11-02T02:10:37.315Z,1.30
2022-11-02T02:11:41.466Z,0.98
2022-11-02T02:12:43.941Z,1.25
2022-11-02T02:13:48.345Z,0.90
2022-11-02T02:14:50.570Z,1.00
2022-11-02T02:16:33.625Z,0.80
2022-11-02T02:17:48.007Z,1.02
2022-11-02T02:19:02.050Z,0.90
2022-11-02T02:20:16.138Z,0.88
2022-11-02T02:21:36.455Z,0.88
2022-11-02T02:23:01.469Z,0.90
2022-11-02T02:24:33.051Z,0.82
2022-11-02T02:25:50.662Z,0.90
2022-11-02T02:26:55.628Z,0.90
2022-11-02T02:28:13.850Z,0.90
2022-11-02T02:29:18.447Z,1.02
2022-11-02T02:30:20.712Z,0.88
2022-11-02T02:31:35.935Z,0.90
2022-11-02T02:32:56.938Z,0.70
2022-11-02T02:34:11.157Z,0.80
2022-11-02T02:35:36.128Z,0.70
2022-11-02T02:36:54.012Z,1.08
2022-11-02T02:38:02.112Z,1.15
2022-11-02T02:39:21.029Z,0.90
2022-11-02T02:40:35.183Z,0.90
2022-11-02T02:41:47.031Z,1.02
2022-11-02T02:42:55.071Z,0.85
2022-11-02T02:43:58.799Z,0.80
2022-11-02T02:45:12.969Z,0.90
2022-11-02T02:46:20.727Z,0.88
2022-11-02T02:47:27.805Z,1.00
2022-11-02T02:48:35.430Z,0.90
2022-11-02T02:49:43.426Z,1.33
2022-11-02T02:50:50.375Z,0.80
2022-11-02T02:51:56.838Z,1.10
2022-11-02T02:53:03.774Z,0.82
2022-11-02T02:54:17.094Z,1.00
2022-11-02T02:55:24.503Z,0.88
2022-11-02T02:56:30.633Z,0.93
2022-11-02T02:57:35.159Z,1.00
2022-11-02T02:58:48.753Z,0.68
2022-11-02T02:59:50.557Z,0.80
2022-11-02T03:00:56.537Z,1.02
2022-11-02T03:01:58.922Z,0.90
2022-11-02T03:03:03.120Z,0.82
2022-11-02T03:04:04.845Z,1.02
2022-11-02T03:05:26.488Z,0.77
2022-11-02T03:06:32.431Z,0.85
2022-11-02T03:07:36.919Z,0.82
2022-11-02T03:09:00.000Z,0.80
2022-11-02T03:10:21.261Z,0.80
2022-11-02T03:11:28.749Z,0.70
2022-11-02T03:12:55.765Z,1.10
2022-11-02T03:14:12.432Z,0.80
2022-11-02T03:15:28.488Z,0.80
2022-11-02T03:17:01.620Z,0.82
2022-11-02T03:18:33.707Z,0.60
2022-11-02T03:19:55.273Z,0.80
2022-11-02T03:21:03.104Z,0.70
2022-11-02T03:22:33.923Z,0.80
2022-11-02T03:23:41.710Z,1.00
2022-11-02T03:25:16.021Z,0.95
2022-11-02T03:26:19.360Z,0.68
2022-11-02T03:27:33.562Z,0.80
2022-11-02T03:28:45.403Z,0.65
2022-11-02T03:30:01.856Z,0.80
2022-11-02T03:31:13.465Z,0.75
2022-11-02T03:32:34.092Z,0.63
2022-11-02T03:33:43.713Z,0.70
2022-11-02T03:34:49.559Z,0.85
2022-11-02T03:36:05.635Z,0.82
2022-11-02T03:38:41.747Z,0.70
2022-11-02T03:39:51.970Z,0.60
2022-11-02T03:40:56.975Z,0.88
2022-11-02T03:42:02.332Z,0.90
2022-11-02T03:43:06.953Z,0.70
2022-11-02T03:44:14.550Z,0.80
2022-11-02T03:45:21.714Z,0.90
2022-11-02T03:46:25.213Z,1.15
2022-11-02T03:47:31.466Z,0.90
2022-11-02T03:48:43.309Z,0.93
2022-11-02T03:49:50.323Z,1.10
2022-11-02T03:50:53.863Z,0.70
2022-11-02T03:52:01.694Z,0.90
2022-11-02T03:53:11.020Z,0.85
2022-11-02T03:54:45.430Z,0.85
2022-11-02T03:56:00.530Z,0.85
2022-11-02T03:57:07.647Z,1.00
2022-11-02T03:58:12.674Z,0.55
2022-11-02T03:59:17.201Z,1.05
2022-11-02T04:00:26.446Z,0.70
2022-11-02T04:01:39.374Z,0.80
2022-11-02T04:02:46.233Z,1.50
2022-11-02T04:03:49.084Z,1.00
2022-11-02T04:04:53.199Z,0.80
2022-11-02T04:05:58.825Z,1.00
2022-11-02T04:07:05.182Z,0.65
2022-11-02T04:08:21.211Z,0.98
2022-11-02T04:09:25.710Z,0.95
2022-11-02T04:10:28.020Z,0.98
2022-11-02T04:11:49.686Z,0.75
2022-11-02T04:13:10.215Z,0.70
2022-11-02T04:14:30.865Z,0.80
2022-11-02T04:15:34.401Z,1.00
2022-11-02T04:16:36.784Z,0.73
2022-11-02T04:18:01.837Z,1.10
2022-11-02T04:19:22.863Z,1.00
2022-11-02T04:20:26.071Z,1.13
2022-11-02T04:21:30.426Z,1.00
2022-11-02T04:22:52.110Z,0.90
2022-11-02T04:24:12.568Z,0.70
2022-11-02T04:25:18.752Z,1.10
2022-11-02T04:26:47.016Z,1.00
2022-11-02T04:27:53.002Z,0.90
2022-11-02T04:28:59.424Z,1.10
2022-11-02T04:30:01.204Z,0.98
2022-11-02T04:31:05.706Z,0.90
2022-11-02T04:32:12.411Z,0.80
2022-11-02T04:33:33.248Z,0.75
2022-11-02T04:34:46.047Z,0.95
2022-11-02T04:35:47.871Z,0.80
2022-11-02T04:36:50.168Z,0.90
2022-11-02T04:38:11.258Z,0.90
2022-11-02T04:39:14.609Z,1.08
2022-11-02T04:40:17.639Z,1.00
2022-11-02T04:41:40.476Z,1.08
2022-11-02T04:43:02.537Z,1.15
2022-11-02T04:44:05.779Z,1.10
2022-11-02T04:45:08.226Z,1.20
2022-11-02T04:46:09.996Z,0.88
2022-11-02T04:47:12.767Z,1.10
2022-11-02T04:48:14.648Z,1.25
2022-11-02T04:49:17.333Z,1.20
2022-11-02T04:50:19.590Z,1.65
2022-11-02T04:51:23.538Z,1.60
2022-11-02T04:52:25.854Z,1.60
2022-11-02T04:53:28.365Z,1.40
2022-11-02T04:54:30.219Z,1.42
2022-11-02T04:55:35.947Z,1.40
2022-11-02T04:56:38.405Z,1.50
2022-11-02T04:57:45.515Z,1.38
2022-11-02T04:58:52.775Z,1.33
2022-11-02T04:59:54.776Z,1.42
2022-11-02T05:00:56.530Z,1.60
2022-11-02T05:01:58.517Z,1.20
2022-11-02T05:03:00.514Z,1.30
2022-11-02T05:04:02.233Z,1.30
2022-11-02T05:05:07.062Z,1.35
2022-11-02T05:06:12.224Z,1.35
2022-11-02T05:07:14.893Z,1.55
2022-11-02T05:08:16.734Z,1.50
2022-11-02T05:09:18.744Z,1.63
2022-11-02T05:10:22.695Z,1.48
2022-11-02T05:11:25.831Z,1.90
2022-11-02T05:12:29.319Z,1.38
2022-11-02T05:13:32.102Z,1.42
2022-11-02T05:14:35.589Z,1.30
2022-11-02T05:15:40.941Z,1.58
2022-11-02T05:16:43.303Z,1.30
2022-11-02T05:17:48.443Z,1.40
2022-11-02T05:18:50.175Z,1.42
2022-11-02T05:19:53.542Z,1.40
2022-11-02T05:20:57.784Z,1.30
2022-11-02T05:22:01.459Z,1.20
2022-11-02T05:23:04.517Z,1.45
2022-11-02T05:24:07.111Z,1.25
2022-11-02T05:25:12.827Z,1.30
2022-11-02T05:26:14.605Z,1.40
2022-11-02T05:27:19.734Z,1.42
2022-11-02T05:28:23.429Z,1.55
2022-11-02T05:29:25.196Z,1.60
2022-11-02T05:30:27.806Z,1.58
2022-11-02T05:31:30.533Z,1.50
2022-11-02T05:32:33.247Z,1.35
2022-11-02T05:33:36.130Z,1.55
2022-11-02T05:34:43.173Z,1.25
2022-11-02T05:35:46.269Z,1.17
2022-11-02T05:36:48.781Z,1.17
2022-11-02T05:37:50.788Z,1.17
2022-11-02T05:38:56.292Z,0.93
2022-11-02T05:39:58.898Z,1.25
2022-11-02T05:41:00.840Z,1.55
2022-11-02T05:42:07.513Z,1.20
2022-11-02T05:43:09.898Z,1.42
2022-11-02T05:44:12.936Z,1.25
2022-11-02T05:45:17.223Z,1.25
2022-11-02T05:46:21.009Z,1.48
2022-11-02T05:47:22.950Z,1.40
2022-11-02T05:48:26.153Z,1.58
2022-11-02T05:49:27.899Z,1.63
2022-11-02T05:50:30.241Z,1.73
2022-11-02T05:51:34.548Z,1.60
2022-11-02T05:52:36.292Z,1.60
2022-11-02T05:53:38.587Z,1.65
2022-11-02T05:54:40.287Z,1.58
2022-11-02T05:55:42.298Z,1.75
2022-11-02T05:56:44.008Z,1.90
2022-11-02T05:57:52.576Z,1.60
2022-11-02T05:58:55.411Z,1.48
2022-11-02T05:59:57.134Z,1.50
2022-11-02T06:01:03.697Z,1.58
2022-11-02T06:02:05.463Z,1.58
2022-11-02T06:03:07.626Z,1.77
2022-11-02T06:04:09.554Z,1.58
2022-11-02T06:05:11.359Z,1.40
2022-11-02T06:06:13.237Z,1.40
2022-11-02T06:07:14.961Z,1.27
2022-11-02T06:08:16.875Z,1.10
2022-11-02T06:09:18.590Z,1.30
2022-11-02T06:10:20.295Z,1.30
2022-11-02T06:11:22.207Z,1.23
2022-11-02T06:12:23.905Z,1.23
2022-11-02T06:13:25.622Z,1.27
2022-11-02T06:14:27.422Z,1.20
2022-11-02T06:15:32.476Z,1.35
2022-11-02T06:16:34.235Z,1.10
2022-11-02T06:17:42.117Z,1.52
2022-11-02T06:18:44.180Z,1.50
2022-11-02T06:19:45.966Z,1.42
2022-11-02T06:20:47.660Z,1.70
2022-11-02T06:21:49.433Z,1.67
2022-11-02T06:22:51.361Z,1.40
2022-11-02T06:23:53.189Z,1.33
2022-11-02T06:24:54.886Z,1.50
2022-11-02T06:25:58.599Z,1.80
2022-11-02T06:27:00.331Z,1.45
2022-11-02T06:28:02.237Z,1.20
2022-11-02T06:29:06.070Z,1.40
2022-11-02T06:30:09.034Z,1.40
2022-11-02T06:31:10.951Z,1.50
2022-11-02T06:32:12.762Z,1.55
2022-11-02T06:33:14.859Z,1.63
2022-11-02T06:34:16.628Z,1.40
2022-11-02T06:35:20.523Z,1.35
2022-11-02T06:36:22.278Z,1.67
2022-11-02T06:37:24.069Z,1.52
2022-11-02T06:38:25.856Z,1.30
2022-11-02T06:39:27.629Z,1.13
2022-11-02T06:40:29.786Z,1.30
2022-11-02T06:41:31.481Z,1.58
2022-11-02T06:42:36.975Z,1.08
2022-11-02T06:43:46.787Z,1.33
2022-11-02T06:44:48.903Z,1.30
2022-11-02T06:45:53.807Z,1.40
2022-11-02T06:46:55.567Z,1.30
2022-11-02T06:47:57.300Z,1.38
2022-11-02T06:48:59.184Z,1.33
2022-11-02T06:50:00.933Z,1.30
2022-11-02T06:51:04.651Z,1.30
2022-11-02T06:52:06.479Z,1.30
2022-11-02T06:53:08.351Z,1.60
2022-11-02T06:54:10.377Z,1.63
2022-11-02T06:55:13.170Z,1.50
2022-11-02T06:56:15.277Z,1.65
2022-11-02T06:57:17.008Z,1.65
2022-11-02T06:58:18.902Z,1.50
2022-11-02T06:59:20.742Z,1.52
2022-11-02T07:00:24.096Z,1.60
2022-11-02T07:01:26.221Z,1.70
2022-11-02T07:02:28.128Z,1.63
2022-11-02T07:03:31.179Z,1.70
2022-11-02T07:04:32.927Z,1.67
2022-11-02T07:05:36.025Z,1.70
2022-11-02T07:06:37.774Z,1.60
2022-11-02T07:07:39.566Z,1.77
2022-11-02T07:08:42.516Z,2.00
2022-11-02T07:09:44.424Z,1.92
2022-11-02T07:10:46.708Z,1.85
2022-11-02T07:11:48.434Z,1.70
2022-11-02T07:12:54.869Z,1.95
2022-11-02T07:13:56.782Z,1.77
2022-11-02T07:14:58.635Z,1.80
2022-11-02T07:16:00.362Z,1.80
2022-11-02T07:17:02.264Z,1.83
2022-11-02T07:18:06.236Z,2.10
2022-11-02T07:19:07.954Z,1.85
2022-11-02T07:20:13.279Z,2.13
2022-11-02T07:21:15.018Z,1.92
2022-11-02T07:22:16.946Z,1.52
2022-11-02T07:23:18.855Z,1.77
2022-11-02T07:24:20.886Z,1.60
2022-11-02T07:25:23.207Z,1.98
2022-11-02T07:26:26.447Z,1.92
2022-11-02T07:27:28.205Z,2.30
2022-11-02T07:28:30.123Z,1.85
2022-11-02T07:29:31.833Z,1.80
2022-11-02T07:30:34.683Z,2.03
2022-11-02T07:31:36.411Z,2.33
2022-11-02T07:32:45.829Z,2.25
2022-11-02T07:33:47.519Z,1.90
2022-11-02T07:34:49.397Z,2.00
2022-11-02T07:35:51.160Z,2.10
2022-11-02T07:36:52.922Z,2.10
2022-11-02T07:37:58.937Z,2.60
2022-11-02T07:39:00.712Z,2.00
2022-11-02T07:40:02.534Z,2.00
2022-11-02T07:41:04.588Z,1.70
2022-11-02T07:42:07.872Z,1.88
2022-11-02T07:43:10.036Z,1.67
2022-11-02T07:44:20.338Z,1.73
2022-11-02T07:45:29.416Z,1.80
2022-11-02T07:46:31.159Z,1.65
2022-11-02T07:47:33.325Z,1.70
2022-11-02T07:48:36.048Z,2.00
2022-11-02T07:49:37.766Z,1.77
2022-11-02T07:50:39.501Z,1.80
2022-11-02T07:51:41.249Z,1.70
2022-11-02T07:52:51.162Z,1.80
2022-11-02T07:53:53.179Z,1.70
2022-11-02T07:54:54.947Z,1.42
2022-11-02T07:55:56.695Z,1.40
2022-11-02T07:56:58.620Z,1.30
2022-11-02T07:58:03.330Z,2.03
2022-11-02T07:59:05.109Z,1.80
2022-11-02T08:00:07.426Z,1.55
2022-11-02T08:01:13.400Z,1.50
2022-11-02T08:02:15.221Z,1.63
2022-11-02T08:03:17.098Z,1.38
2022-11-02T08:04:19.139Z,1.50
2022-11-02T08:05:20.939Z,1.40
2022-11-02T08:06:22.768Z,1.35
2022-11-02T08:07:24.550Z,1.67
2022-11-02T08:08:26.394Z,1.48
2022-11-02T08:09:28.123Z,1.63
2022-11-02T08:10:35.379Z,1.70
2022-11-02T08:11:42.178Z,1.40
2022-11-02T08:12:43.938Z,1.23
2022-11-02T08:13:45.690Z,1.50
2022-11-02T08:14:47.385Z,1.58
2022-11-02T08:15:53.701Z,1.80
2022-11-02T08:16:55.393Z,1.58
2022-11-02T08:18:09.641Z,1.58
2022-11-02T08:19:11.397Z,1.60
2022-11-02T08:20:13.262Z,1.65
2022-11-02T08:21:15.025Z,1.35
2022-11-02T08:22:16.759Z,1.75
2022-11-02T08:23:20.848Z,1.65
2022-11-02T08:24:22.639Z,1.70
2022-11-02T08:25:25.004Z,1.60
2022-11-02T08:26:26.740Z,1.30
2022-11-02T08:27:28.485Z,1.30
2022-11-02T08:28:32.526Z,1.40
2022-11-02T08:29:35.504Z,1.40
2022-11-02T08:30:38.245Z,1.27
2022-11-02T08:31:40.138Z,1.35
2022-11-02T08:32:42.038Z,1.50
2022-11-02T08:33:44.955Z,1.50
2022-11-02T08:34:46.926Z,1.50
2022-11-02T08:35:48.985Z,1.70
2022-11-02T08:36:50.933Z,1.60
2022-11-02T08:37:57.319Z,2.15
2022-11-02T08:38:59.141Z,1.40
2022-11-02T08:40:01.662Z,1.15
2022-11-02T08:41:03.642Z,1.30
2022-11-02T08:42:05.495Z,1.40
2022-11-02T08:43:10.060Z,1.90
2022-11-02T08:44:11.780Z,1.38
2022-11-02T08:45:13.542Z,1.58
2022-11-02T08:46:16.848Z,1.58
2022-11-02T08:47:19.127Z,1.30
2022-11-02T08:48:20.833Z,1.45
2022-11-02T08:49:22.652Z,1.40
2022-11-02T08:50:26.918Z,1.40
2022-11-02T08:51:28.700Z,1.70
2022-11-02T08:52:40.392Z,1.63
2022-11-02T08:53:47.086Z,1.85
2022-11-02T08:54:52.098Z,1.67
2022-11-02T08:55:53.993Z,1.50
2022-11-02T08:56:55.718Z,1.85
2022-11-02T08:57:59.165Z,1.52
2022-11-02T08:59:01.006Z,1.33
2022-11-02T09:00:02.776Z,1.58
2022-11-02T09:01:04.790Z,1.52
2022-11-02T09:02:06.955Z,1.30
2022-11-02T09:03:10.873Z,1.50
2022-11-02T09:04:12.655Z,1.50
2022-11-02T09:05:14.548Z,1.30
2022-11-02T09:06:16.245Z,1.33
2022-11-02T09:07:17.948Z,1.20
2022-11-02T09:08:20.886Z,1.30
2022-11-02T09:09:22.731Z,1.10
2022-11-02T09:10:24.966Z,1.00
2022-11-02T09:11:26.740Z,1.10
2022-11-02T09:12:28.532Z,1.05
2022-11-02T09:13:30.787Z,1.10
2022-11-02T09:14:32.886Z,1.17
2022-11-02T09:15:36.920Z,1.08
2022-11-02T09:16:41.390Z,1.45
2022-11-02T09:17:46.655Z,0.90
2022-11-02T09:18:48.348Z,1.00
2022-11-02T09:19:50.119Z,1.15
2022-11-02T09:20:51.954Z,0.70
2022-11-02T09:21:53.749Z,1.00
2022-11-02T09:22:55.447Z,1.02
2022-11-02T09:23:57.333Z,1.00
2022-11-02T09:24:59.186Z,0.95
2022-11-02T09:26:00.999Z,1.30
2022-11-02T09:27:02.817Z,1.23
2022-11-02T09:28:04.648Z,1.00
2022-11-02T09:29:06.651Z,1.40
2022-11-02T09:30:09.221Z,1.13
2022-11-02T09:31:11.865Z,1.20
2022-11-02T09:32:13.987Z,1.38
2022-11-02T09:33:16.055Z,1.52
2022-11-02T09:34:17.799Z,1.48
2022-11-02T09:35:19.510Z,1.52
2022-11-02T09:36:21.317Z,1.30
2022-11-02T09:37:23.506Z,1.35
2022-11-02T09:38:25.177Z,1.50
2022-11-02T09:39:26.877Z,1.25
2022-11-02T09:40:35.789Z,1.20
2022-11-02T09:41:43.677Z,1.80
2022-11-02T09:42:55.848Z,1.40
2022-11-02T09:44:07.897Z,1.40
2022-11-02T09:45:16.334Z,1.20
2022-11-02T09:46:30.081Z,1.00
2022-11-02T09:49:10.631Z,1.40
2022-11-02T09:50:21.470Z,1.30
2022-11-02T09:51:38.299Z,1.15
2022-11-02T09:52:43.442Z,1.38
2022-11-02T09:53:55.734Z,1.17
2022-11-02T09:55:00.665Z,1.10
2022-11-02T09:56:05.013Z,1.00
2022-11-02T09:57:12.144Z,1.27
2022-11-02T09:58:18.354Z,0.90
2022-11-02T09:59:23.080Z,1.08
2022-11-02T10:00:26.981Z,1.10
2022-11-02T10:01:50.336Z,1.23
2022-11-02T10:03:24.407Z,0.90
2022-11-02T10:04:31.972Z,0.90
2022-11-02T10:06:01.119Z,0.98
2022-11-02T10:07:10.612Z,0.70
2022-11-02T10:08:22.332Z,0.73
2022-11-02T10:09:37.427Z,0.90
2022-11-02T10:10:48.287Z,0.93
2022-11-02T10:12:13.024Z,0.70
2022-11-02T10:13:51.248Z,0.65
2022-11-02T10:14:55.817Z,0.85
2022-11-02T10:16:03.615Z,0.80
2022-11-02T10:17:14.610Z,0.90
2022-11-02T10:18:21.032Z,0.70
2022-11-02T10:19:26.307Z,0.80
2022-11-02T10:20:50.862Z,0.60
2022-11-02T10:21:57.498Z,0.60
2022-11-02T10:23:07.244Z,0.63
2022-11-02T10:24:22.526Z,0.40
2022-11-02T10:25:24.894Z,0.70
2022-11-02T10:26:34.605Z,0.70
2022-11-02T10:27:40.076Z,0.52
2022-11-02T10:28:47.004Z,0.60
2022-11-02T10:30:07.794Z,0.50
2022-11-02T10:31:27.479Z,0.60
2022-11-02T10:32:32.111Z,0.73
2022-11-02T10:33:34.102Z,0.60
2022-11-02T10:34:35.922Z,0.65
2022-11-02T10:36:04.775Z,0.60
2022-11-02T10:37:21.764Z,0.63
2022-11-02T10:38:41.756Z,0.65
2022-11-02T10:40:04.424Z,0.55
2022-11-02T10:41:15.166Z,0.70
2022-11-02T10:42:40.282Z,0.47
2022-11-02T10:43:55.377Z,0.70
2022-11-02T10:45:24.540Z,0.60
2022-11-02T10:46:32.012Z,0.50
2022-11-02T10:47:41.397Z,0.70
2022-11-02T10:48:56.057Z,0.32
2022-11-02T10:50:45.428Z,0.75
2022-11-02T10:51:47.257Z,0.70
2022-11-02T10:52:49.065Z,0.65
2022-11-02T10:53:52.940Z,0.77
2022-11-02T10:54:55.774Z,0.70
2022-11-02T10:56:21.923Z,0.60
2022-11-02T10:57:25.337Z,0.63
2022-11-02T10:58:28.842Z,0.65
2022-11-02T10:59:30.578Z,0.80
2022-11-02T11:00:37.105Z,0.70
2022-11-02T11:01:46.482Z,0.60
2022-11-02T11:03:11.694Z,0.93
2022-11-02T11:04:26.000Z,0.90
2022-11-02T11:05:27.800Z,0.90
2022-11-02T11:06:43.503Z,0.75
2022-11-02T11:07:45.282Z,0.88
2022-11-02T11:08:49.965Z,0.80
2022-11-02T11:09:55.345Z,0.70
2022-11-02T11:11:10.254Z,0.70
2022-11-02T11:12:22.588Z,0.60
2022-11-02T11:16:50.210Z,0.70
2022-11-02T11:19:38.562Z,0.80
2022-11-02T11:20:42.712Z,0.70
2022-11-02T11:21:44.704Z,0.75
2022-11-02T11:22:46.448Z,0.77
2022-11-02T11:23:48.249Z,0.70
2022-11-02T11:24:50.057Z,0.93
2022-11-02T11:26:07.106Z,0.70
2022-11-02T11:27:11.791Z,0.82
2022-11-02T11:28:31.786Z,0.70
2022-11-02T11:29:38.185Z,0.70
2022-11-02T11:30:58.876Z,0.75
2022-11-02T11:32:03.095Z,0.85
2022-11-02T11:33:07.153Z,0.70
2022-11-02T11:34:24.520Z,0.80
2022-11-02T11:35:39.581Z,0.80
2022-11-02T11:36:41.496Z,0.73
2022-11-02T11:37:56.620Z,0.80
2022-11-02T11:39:17.021Z,0.90
2022-11-02T11:40:21.605Z,0.80
2022-11-02T11:41:23.853Z,0.70
2022-11-02T11:42:28.932Z,0.77
2022-11-02T11:43:37.605Z,0.90
2022-11-02T11:44:45.542Z,0.82
2022-11-02T11:46:05.952Z,1.17
2022-11-02T11:47:08.419Z,1.15
2022-11-02T11:48:34.499Z,1.23
2022-11-02T11:51:27.688Z,1.20
2022-11-02T11:52:32.782Z,1.10
2022-11-02T11:53:35.627Z,1.13
2022-11-02T11:54:38.347Z,0.90
2022-11-02T11:55:50.835Z,1.13
2022-11-02T11:56:59.573Z,1.30
2022-11-02T11:58:16.135Z,1.15
2022-11-02T11:59:44.682Z,1.17
2022-11-02T12:00:46.526Z,0.95
2022-11-02T12:01:49.077Z,1.15
2022-11-02T12:03:12.536Z,0.88
2022-11-02T12:04:27.450Z,0.93
2022-11-02T12:05:30.164Z,0.95
2022-11-02T12:06:52.541Z,1.05
2022-11-02T12:08:06.448Z,1.00
2022-11-02T12:09:20.935Z,0.98
2022-11-02T12:10:46.210Z,1.15
2022-11-02T12:12:01.642Z,0.90
2022-11-02T12:13:14.493Z,0.90
2022-11-02T12:14:37.693Z,1.00
2022-11-02T12:15:45.255Z,1.30
2022-11-02T12:17:17.457Z,1.33
2022-11-02T12:18:26.039Z,0.88
2022-11-02T12:19:36.809Z,1.40
2022-11-02T12:20:45.883Z,1.27
2022-11-02T12:22:29.238Z,1.63
2022-11-02T12:24:20.680Z,1.45
2022-11-02T12:25:45.846Z,1.73
2022-11-02T12:26:50.499Z,1.60
2022-11-02T12:28:04.859Z,1.73
2022-11-02T12:29:47.815Z,1.80
2022-11-02T12:30:52.319Z,1.60
2022-11-02T12:32:15.330Z,1.70
2022-11-02T12:33:28.860Z,1.48
2022-11-02T12:34:57.770Z,1.35
2022-11-02T12:36:49.690Z,1.20
2022-11-02T12:38:32.353Z,1.33
2022-11-02T12:39:51.725Z,1.45
2022-11-02T12:41:02.610Z,1.25
2022-11-02T12:42:32.361Z,1.33
2022-11-02T12:43:46.844Z,1.23
2022-11-02T12:45:13.210Z,1.00
2022-11-02T12:46:52.184Z,1.10
2022-11-02T12:47:57.856Z,1.15
2022-11-02T12:49:02.474Z,1.05
2022-11-02T12:50:22.813Z,1.00
2022-11-02T12:51:38.509Z,0.80
2022-11-02T12:53:17.557Z,1.35
2022-11-02T12:54:29.554Z,1.00
2022-11-02T12:55:41.563Z,1.10
2022-11-02T12:56:52.325Z,1.00
2022-11-02T12:58:04.586Z,1.23
2022-11-02T12:59:06.751Z,1.40
2022-11-02T13:00:19.619Z,1.00
2022-11-02T13:01:33.557Z,1.20
2022-11-02T13:02:41.892Z,1.00
2022-11-02T13:04:17.169Z,1.10
2022-11-02T13:05:21.574Z,0.88
2022-11-02T13:06:36.142Z,0.90
2022-11-02T13:08:02.502Z,1.00
2022-11-02T13:09:15.415Z,1.05
2022-11-02T13:10:25.610Z,1.13
2022-11-02T13:11:41.736Z,1.05
2022-11-02T13:12:45.923Z,0.90
2022-11-02T13:13:55.913Z,0.93
2022-11-02T13:14:58.963Z,1.17
2022-11-02T13:16:02.694Z,1.02
2022-11-02T13:17:33.667Z,0.80
2022-11-02T13:18:44.108Z,0.90
2022-11-02T13:19:51.916Z,0.80
2022-11-02T13:20:59.049Z,0.93
2022-11-02T13:22:03.955Z,1.10
2022-11-02T13:23:34.969Z,0.90
2022-11-02T13:24:45.598Z,0.90
2022-11-02T13:25:52.437Z,1.05
2022-11-02T13:27:02.170Z,1.10
2022-11-02T13:28:42.281Z,1.08
2022-11-02T13:29:50.965Z,0.88
2022-11-02T13:30:54.446Z,1.30
2022-11-02T13:32:09.932Z,1.10
2022-11-02T13:33:34.905Z,1.20
2022-11-02T13:34:41.927Z,1.38
2022-11-02T13:35:43.664Z,1.30
2022-11-02T13:36:47.051Z,1.40
2022-11-02T13:37:55.898Z,1.27
2022-11-02T13:39:19.096Z,1.60
2022-11-02T13:40:24.323Z,1.50
2022-11-02T13:42:08.105Z,1.40
2022-11-02T13:43:16.364Z,1.55
2022-11-02T13:44:29.782Z,1.70
2022-11-02T13:46:08.786Z,1.70
2022-11-02T13:47:42.913Z,1.88
2022-11-02T13:49:13.608Z,1.85
2022-11-02T13:50:19.560Z,1.55
2022-11-02T13:51:31.088Z,1.92
2022-11-02T13:52:38.623Z,1.60
2022-11-02T13:53:51.183Z,1.80
2022-11-02T13:54:59.168Z,1.90
2022-11-02T13:56:09.480Z,1.77
2022-11-02T13:57:22.350Z,1.58
2022-11-02T13:58:28.089Z,1.90
2022-11-02T13:59:42.163Z,1.90
2022-11-02T14:00:46.247Z,1.70
2022-11-02T14:01:49.055Z,1.80
2022-11-02T14:02:57.033Z,1.77
2022-11-02T14:04:11.035Z,2.03
2022-11-02T14:05:25.703Z,2.10
2022-11-02T14:06:27.759Z,1.52
2022-11-02T14:07:34.722Z,1.60
2022-11-02T14:08:42.445Z,1.67
2022-11-02T14:09:45.034Z,1.70
2022-11-02T14:11:10.561Z,1.58
2022-11-02T14:12:17.904Z,1.60
2022-11-02T14:13:51.517Z,1.55
2022-11-02T14:15:15.434Z,1.50
2022-11-02T14:16:51.220Z,1.33
2022-11-02T14:17:52.988Z,1.60
2022-11-02T14:19:33.698Z,1.40
2022-11-02T14:20:35.577Z,1.60
2022-11-02T14:21:43.461Z,1.35
2022-11-02T14:23:25.544Z,1.67
2022-11-02T14:24:33.087Z,1.48
2022-11-02T14:25:53.429Z,1.58
2022-11-02T14:26:57.193Z,1.60
2022-11-02T14:28:18.890Z,1.70
2022-11-02T14:29:54.517Z,1.67
2022-11-02T14:31:05.326Z,1.77
2022-11-02T14:32:23.885Z,1.60
2022-11-02T14:33:44.893Z,1.90
2022-11-02T14:35:17.465Z,1.90
2022-11-02T14:36:22.811Z,1.30
2022-11-02T14:37:46.149Z,1.98
2022-11-02T14:39:09.861Z,1.88
2022-11-02T14:40:26.886Z,1.73
2022-11-02T14:42:03.335Z,1.77
2022-11-02T14:43:38.657Z,1.67
2022-11-02T14:44:55.600Z,1.80
2022-11-02T14:46:27.674Z,1.80
2022-11-02T14:47:33.471Z,1.75
2022-11-02T14:48:51.461Z,1.70
2022-11-02T14:49:57.208Z,1.50
2022-11-02T14:51:02.780Z,1.48
2022-11-02T14:52:27.486Z,1.60
2022-11-02T14:53:33.624Z,1.65
2022-11-02T14:54:47.989Z,2.00
2022-11-02T14:55:55.747Z,1.55
2022-11-02T14:57:03.160Z,1.65
2022-11-02T14:58:11.244Z,1.73
2022-11-02T14:59:19.784Z,1.35
2022-11-02T15:00:38.423Z,1.60
2022-11-02T15:01:51.596Z,1.70
2022-11-02T15:02:54.066Z,1.35
2022-11-02T15:03:55.954Z,1.80
2022-11-02T15:05:00.393Z,1.42
2022-11-02T15:06:03.268Z,1.63
2022-11-02T15:07:06.619Z,1.63
2022-11-02T15:08:16.658Z,1.65
2022-11-02T15:10:10.827Z,1.67
2022-11-02T15:11:43.273Z,1.73
2022-11-02T15:12:48.987Z,1.80
2022-11-02T15:13:50.777Z,1.45
2022-11-02T15:14:58.464Z,1.40
2022-11-02T15:16:00.168Z,1.45